createdAt,value
2022-10-17T00:00:47.021Z,101509.30
2022-10-17T00:03:36.560Z,101512.77
2022-10-17T00:06:10.657Z,101506.21
2022-10-17T00:08:43.526Z,101509.87
2022-10-17T00:11:19.592Z,101507.05
2022-10-17T00:13:56.929Z,101506.83
2022-10-17T00:16:30.280Z,101504.17
2022-10-17T00:19:02.683Z,101499.95
2022-10-17T00:21:34.880Z,101502.20
2022-10-17T00:24:07.960Z,101507.06
2022-10-17T00:26:39.551Z,101507.99
2022-10-17T00:29:11.312Z,101503.77
2022-10-17T00:31:43.012Z,101487.03
2022-10-17T00:34:16.292Z,101483.36
2022-10-17T00:36:47.797Z,101495.04
2022-10-17T00:39:20.180Z,101499.45
2022-10-17T00:41:51.859Z,101503.84
2022-10-17T00:44:59.919Z,101511.21
2022-10-17T00:47:32.123Z,101514.09
2022-10-17T00:50:05.409Z,101522.72
2022-10-17T00:52:43.344Z,101522.70
2022-10-17T00:55:19.927Z,101520.73
2022-10-17T00:57:52.643Z,101526.45
2022-10-17T01:00:28.229Z,101533.02
2022-10-17T01:02:59.752Z,101536.13
2022-10-17T01:05:31.879Z,101533.80
2022-10-17T01:08:04.180Z,101535.27
2022-10-17T01:10:44.955Z,101529.48
2022-10-17T01:13:23.157Z,101534.39
2022-10-17T01:16:07.775Z,101533.02
2022-10-17T01:18:57.475Z,101542.41
2022-10-17T01:21:45.758Z,101537.79
2022-10-17T01:24:37.017Z,101531.60
2022-10-17T01:27:30.620Z,101524.73
2022-10-17T01:30:22.882Z,101527.12
2022-10-17T01:33:01.964Z,101523.88
2022-10-17T01:35:39.550Z,101526.63
2022-10-17T01:38:15.966Z,101518.83
2022-10-17T01:40:54.844Z,101508.32
2022-10-17T01:43:33.946Z,101509.23
2022-10-17T01:46:12.958Z,101513.64
2022-10-17T01:48:47.099Z,101515.27
2022-10-17T01:51:22.594Z,101524.78
2022-10-17T01:54:00.674Z,101521.07
2022-10-17T01:56:35.479Z,101510.38
2022-10-17T01:59:12.097Z,101514.52
2022-10-17T02:01:45.457Z,101517.20
2022-10-17T02:04:18.782Z,101515.27
2022-10-17T02:06:50.344Z,101522.20
2022-10-17T02:09:25.454Z,101521.40
2022-10-17T02:12:13.378Z,101526.25
2022-10-17T02:15:00.277Z,101522.39
2022-10-17T02:17:44.629Z,101527.44
2022-10-17T02:20:27.610Z,101531.88
2022-10-17T02:23:07.269Z,101533.17
2022-10-17T02:25:46.400Z,101531.30
2022-10-17T02:28:25.643Z,101527.95
2022-10-17T02:31:07.669Z,101522.70
2022-10-17T02:33:46.415Z,101523.70
2022-10-17T02:36:29.452Z,101524.69
2022-10-17T02:39:02.728Z,101518.96
2022-10-17T02:41:37.221Z,101516.71
2022-10-17T02:44:09.859Z,101519.11
2022-10-17T02:46:46.495Z,101521.28
2022-10-17T02:49:20.758Z,101531.12
2022-10-17T02:51:59.851Z,101538.86
2022-10-17T02:54:39.916Z,101530.79
2022-10-17T02:57:16.330Z,101531.96
2022-10-17T02:59:48.758Z,101530.52
2022-10-17T03:02:23.142Z,101529.15
2022-10-17T03:04:54.703Z,101528.85
2022-10-17T03:07:26.273Z,101537.45
2022-10-17T03:09:57.805Z,101540.80
2022-10-17T03:12:31.252Z,101539.36
2022-10-17T03:15:03.242Z,101543.23
2022-10-17T03:17:35.006Z,101544.58
2022-10-17T03:20:12.284Z,101545.95
2022-10-17T03:22:45.492Z,101542.86
2022-10-17T03:25:23.408Z,101539.63
2022-10-17T03:27:55.156Z,101536.67
2022-10-17T03:30:26.669Z,101542.83
2022-10-17T03:33:00.843Z,101537.27
2022-10-17T03:35:32.477Z,101536.65
2022-10-17T03:38:04.130Z,101537.13
2022-10-17T03:40:35.678Z,101536.24
2022-10-17T03:43:08.128Z,101543.14
2022-10-17T03:45:39.642Z,101546.38
2022-10-17T03:48:11.296Z,101545.74
2022-10-17T03:50:42.997Z,101547.92
2022-10-17T03:53:15.320Z,101550.28
2022-10-17T03:55:46.953Z,101547.79
2022-10-17T03:58:18.533Z,101542.10
2022-10-17T04:00:50.129Z,101540.88
2022-10-17T04:03:23.313Z,101545.26
2022-10-17T04:05:54.862Z,101544.92
2022-10-17T04:08:26.706Z,101544.61
2022-10-17T04:11:02.216Z,101541.45
2022-10-17T04:13:34.407Z,101541.67
2022-10-17T04:16:07.989Z,101541.95
2022-10-17T04:18:39.551Z,101546.27
2022-10-17T04:21:12.397Z,101546.71
2022-10-17T04:23:44.731Z,101547.30
2022-10-17T04:26:16.403Z,101550.92
2022-10-17T04:28:48.064Z,101555.50
2022-10-17T04:31:20.003Z,101553.54
2022-10-17T04:33:53.116Z,101552.30
2022-10-17T04:36:24.792Z,101554.72
2022-10-17T04:38:56.403Z,101550.66
2022-10-17T04:41:28.003Z,101549.48
2022-10-17T04:43:59.665Z,101549.29
2022-10-17T04:46:31.342Z,101549.08
2022-10-17T04:49:02.940Z,101548.38
2022-10-17T04:51:34.539Z,101552.77
2022-10-17T04:54:06.982Z,101550.83
2022-10-17T04:56:38.735Z,101550.58
2022-10-17T04:59:11.125Z,101551.01
2022-10-17T05:01:42.944Z,101550.05
2022-10-17T05:04:15.291Z,101552.46
2022-10-17T05:06:46.763Z,101548.56
2022-10-17T05:09:18.357Z,101551.38
2022-10-17T05:11:50.054Z,101551.33
2022-10-17T05:14:22.515Z,101551.70
2022-10-17T05:16:54.027Z,101555.83
2022-10-17T05:19:25.935Z,101558.58
2022-10-17T05:21:58.453Z,101563.38
2022-10-17T05:24:30.889Z,101568.08
2022-10-17T05:27:02.892Z,101570.77
2022-10-17T05:29:35.304Z,101567.45
2022-10-17T05:32:07.775Z,101570.58
2022-10-17T05:34:40.198Z,101569.01
2022-10-17T05:37:11.740Z,101572.20
2022-10-17T05:39:45.070Z,101569.98
2022-10-17T05:42:18.281Z,101572.79
2022-10-17T05:44:50.001Z,101579.41
2022-10-17T05:47:21.606Z,101578.70
2022-10-17T05:49:53.303Z,101585.21
2022-10-17T05:52:25.628Z,101586.70
2022-10-17T05:54:57.331Z,101588.95
2022-10-17T05:57:29.626Z,101589.44
2022-10-17T06:00:05.052Z,101594.58
2022-10-17T06:02:40.472Z,101591.17
2022-10-17T06:05:32.201Z,101586.02
2022-10-17T06:08:58.033Z,101591.13
2022-10-17T06:11:46.493Z,101597.14
2022-10-17T06:14:18.125Z,101600.02
2022-10-17T06:16:49.780Z,101604.00
2022-10-17T06:19:22.622Z,101606.94
2022-10-17T06:21:55.651Z,101606.65
2022-10-17T06:24:27.460Z,101607.66
2022-10-17T06:26:59.895Z,101611.11
2022-10-17T06:29:31.539Z,101608.63
2022-10-17T06:32:04.026Z,101607.88
2022-10-17T06:34:35.793Z,101608.88
2022-10-17T06:37:08.277Z,101609.52
2022-10-17T06:39:39.960Z,101611.55
2022-10-17T06:42:13.382Z,101616.05
2022-10-17T06:44:44.853Z,101616.02
2022-10-17T06:47:19.242Z,101620.29
2022-10-17T06:49:51.802Z,101624.44
2022-10-17T06:52:23.533Z,101625.27
2022-10-17T06:54:55.389Z,101625.79
2022-10-17T06:57:27.492Z,101628.73
2022-10-17T06:59:59.344Z,101629.98
2022-10-17T07:02:31.282Z,101630.75
2022-10-17T07:05:03.791Z,101625.80
2022-10-17T07:07:38.855Z,101627.91
2022-10-17T07:10:13.597Z,101625.86
2022-10-17T07:12:46.668Z,101629.23
2022-10-17T07:15:18.405Z,101630.84
2022-10-17T07:17:52.308Z,101632.48
2022-10-17T07:20:24.152Z,101632.90
2022-10-17T07:22:55.886Z,101632.70
2022-10-17T07:25:28.509Z,101629.14
2022-10-17T07:28:00.215Z,101627.91
2022-10-17T07:30:31.877Z,101624.63
2022-10-17T07:33:03.593Z,101624.42
2022-10-17T07:35:35.225Z,101628.02
2022-10-17T07:38:06.851Z,101627.44
2022-10-17T07:40:38.712Z,101630.52
2022-10-17T07:43:11.224Z,101635.60
2022-10-17T07:45:43.559Z,101638.13
2022-10-17T07:48:15.180Z,101639.89
2022-10-17T07:50:47.080Z,101634.60
2022-10-17T07:53:19.406Z,101638.81
2022-10-17T07:55:51.487Z,101638.29
2022-10-17T07:58:23.068Z,101645.75
2022-10-17T08:00:54.726Z,101644.49
2022-10-17T08:03:26.523Z,101643.89
2022-10-17T08:06:04.093Z,101640.96
2022-10-17T08:08:36.406Z,101637.80
2022-10-17T08:11:10.317Z,101635.98
2022-10-17T08:13:42.793Z,101637.97
2022-10-17T08:16:15.029Z,101636.86
2022-10-17T08:18:46.640Z,101639.59
2022-10-17T08:21:18.176Z,101635.64
2022-10-17T08:23:50.651Z,101634.50
2022-10-17T08:26:23.006Z,101636.58
2022-10-17T08:28:54.781Z,101636.36
2022-10-17T08:31:27.364Z,101633.80
2022-10-17T08:34:00.638Z,101633.34
2022-10-17T08:36:32.150Z,101636.27
2022-10-17T08:39:03.893Z,101637.16
2022-10-17T08:42:00.684Z,101638.48
2022-10-17T08:44:47.741Z,101637.71
2022-10-17T08:47:28.040Z,101636.91
2022-10-17T08:50:03.272Z,101639.10
2022-10-17T08:52:41.352Z,101635.70
2022-10-17T08:55:20.947Z,101635.30
2022-10-17T08:57:52.611Z,101631.75
2022-10-17T09:00:29.324Z,101634.41
2022-10-17T09:03:17.074Z,101630.67
2022-10-17T09:05:55.367Z,101628.80
2022-10-17T09:08:44.151Z,101627.15
2022-10-17T09:11:28.552Z,101627.84
2022-10-17T09:14:14.155Z,101620.16
2022-10-17T09:17:02.442Z,101619.38
2022-10-17T09:19:37.527Z,101623.13
2022-10-17T09:22:16.086Z,101620.72
2022-10-17T09:24:50.907Z,101621.68
2022-10-17T09:27:26.487Z,101618.18
2022-10-17T09:30:26.859Z,101618.43
2022-10-17T09:32:58.800Z,101615.28
2022-10-17T09:35:31.384Z,101614.32
2022-10-17T09:38:03.203Z,101609.90
2022-10-17T09:40:37.779Z,101607.78
2022-10-17T09:43:12.598Z,101606.90
2022-10-17T09:45:57.135Z,101612.89
2022-10-17T09:48:33.865Z,101612.73
2022-10-17T09:51:15.107Z,101613.02
2022-10-17T09:54:03.831Z,101609.17
2022-10-17T09:57:02.460Z,101610.02
2022-10-17T09:59:36.608Z,101607.45
2022-10-17T10:02:21.000Z,101611.75
2022-10-17T10:05:06.467Z,101609.89
2022-10-17T10:07:40.412Z,101618.51
2022-10-17T10:10:30.250Z,101616.95
2022-10-17T10:13:17.418Z,101611.69
2022-10-17T10:15:50.827Z,101612.97
2022-10-17T10:18:37.154Z,101609.09
2022-10-17T10:21:12.974Z,101610.67
2022-10-17T10:23:46.750Z,101608.22
2022-10-17T10:26:24.818Z,101606.89
2022-10-17T10:29:00.099Z,101608.23
2022-10-17T10:31:39.006Z,101607.70
2022-10-17T10:34:35.813Z,101612.69
2022-10-17T10:37:18.698Z,101607.36
2022-10-17T10:39:52.909Z,101606.73
2022-10-17T10:42:30.238Z,101605.23
2022-10-17T10:45:23.693Z,101602.95
2022-10-17T10:48:04.125Z,101604.15
2022-10-17T10:50:44.392Z,101605.54
2022-10-17T10:53:34.768Z,101605.80
2022-10-17T10:56:13.527Z,101606.56
2022-10-17T10:58:55.218Z,101609.05
2022-10-17T11:01:36.343Z,101607.36
2022-10-17T11:04:22.128Z,101605.83
2022-10-17T11:07:00.211Z,101601.80
2022-10-17T11:09:43.830Z,101601.88
2022-10-17T11:12:20.024Z,101601.64
2022-10-17T11:14:58.835Z,101601.63
2022-10-17T11:17:38.086Z,101598.61
2022-10-17T11:20:26.105Z,101591.81
2022-10-17T11:23:24.874Z,101592.98
2022-10-17T11:26:05.178Z,101592.91
2022-10-17T11:28:36.980Z,101589.44
2022-10-17T11:31:14.682Z,101588.23
2022-10-17T11:33:50.084Z,101590.28
2022-10-17T11:36:27.296Z,101584.00
2022-10-17T11:39:02.713Z,101582.16
2022-10-17T11:41:40.604Z,101576.36
2022-10-17T11:44:20.917Z,101575.79
2022-10-17T11:46:55.820Z,101578.13
2022-10-17T11:49:34.212Z,101576.52
2022-10-17T11:52:43.887Z,101575.85
2022-10-17T11:55:18.847Z,101568.52
2022-10-17T11:58:02.939Z,101566.15
2022-10-17T12:01:02.567Z,101568.30
2022-10-17T12:03:49.495Z,101569.34
2022-10-17T12:06:32.638Z,101562.92
2022-10-17T12:09:11.320Z,101559.38
2022-10-17T12:11:55.964Z,101560.85
2022-10-17T12:14:48.490Z,101555.38
2022-10-17T12:17:38.918Z,101556.94
2022-10-17T12:20:34.705Z,101556.15
2022-10-17T12:23:24.771Z,101556.64
2022-10-17T12:26:01.502Z,101553.85
2022-10-17T12:28:47.782Z,101552.64
2022-10-17T12:31:34.139Z,101549.83
2022-10-17T12:34:06.897Z,101544.35
2022-10-17T12:36:42.357Z,101549.38
2022-10-17T12:39:46.792Z,101548.79
2022-10-17T12:42:46.694Z,101548.42
2022-10-17T12:45:53.033Z,101547.16
2022-10-17T12:49:04.744Z,101545.23
2022-10-17T12:52:06.008Z,101545.22
2022-10-17T12:54:53.540Z,101543.20
2022-10-17T12:57:38.691Z,101540.17
2022-10-17T13:00:29.439Z,101530.37
2022-10-17T13:03:07.880Z,101523.06
2022-10-17T13:05:42.321Z,101522.41
2022-10-17T13:08:20.461Z,101523.31
2022-10-17T13:10:55.183Z,101521.20
2022-10-17T13:13:36.831Z,101520.90
2022-10-17T13:16:28.363Z,101525.20
2022-10-17T13:19:00.401Z,101525.30
2022-10-17T13:21:33.195Z,101523.81
2022-10-17T13:24:22.816Z,101525.00
2022-10-17T13:26:54.362Z,101525.48
2022-10-17T13:29:28.603Z,101524.02
2022-10-17T13:32:04.011Z,101516.96
2022-10-17T13:34:36.859Z,101513.48
2022-10-17T13:37:12.369Z,101511.80
2022-10-17T13:39:55.312Z,101515.29
2022-10-17T13:42:30.486Z,101518.77
2022-10-17T13:45:02.673Z,101517.39
2022-10-17T13:47:40.396Z,101512.58
2022-10-17T13:50:43.483Z,101512.52
2022-10-17T13:53:26.541Z,101513.74
2022-10-17T13:56:22.880Z,101511.81
2022-10-17T13:58:53.662Z,101513.13
2022-10-17T14:01:27.992Z,101512.52
2022-10-17T14:04:09.023Z,101512.32
2022-10-17T14:06:47.871Z,101511.80
2022-10-17T14:09:26.274Z,101513.27
2022-10-17T14:12:04.802Z,101510.59
2022-10-17T14:14:58.034Z,101509.48
2022-10-17T14:17:31.180Z,101506.56
2022-10-17T14:20:34.113Z,101505.25
2022-10-17T14:23:21.965Z,101504.15
2022-10-17T14:25:49.055Z,101502.20
2022-10-17T14:28:23.583Z,101500.70
2022-10-17T14:31:10.673Z,101501.65
2022-10-17T14:33:50.599Z,101505.85
2022-10-17T14:36:34.338Z,101504.91
2022-10-17T14:39:14.089Z,101507.13
2022-10-17T14:41:47.234Z,101502.98
2022-10-17T14:44:26.422Z,101502.83
2022-10-17T14:47:18.267Z,101502.88
2022-10-17T14:50:03.503Z,101500.67
2022-10-17T14:52:40.949Z,101502.31
2022-10-17T14:55:27.450Z,101506.40
2022-10-17T14:57:59.076Z,101504.31
2022-10-17T15:00:30.957Z,101501.83
2022-10-17T15:03:02.584Z,101500.60
2022-10-17T15:05:35.695Z,101500.70
2022-10-17T15:08:12.251Z,101502.72
2022-10-17T15:10:44.694Z,101501.56
2022-10-17T15:13:27.640Z,101501.58
2022-10-17T15:16:00.533Z,101501.53
2022-10-17T15:18:32.626Z,101505.10
2022-10-17T15:21:05.359Z,101502.73
2022-10-17T15:23:38.239Z,101502.82
2022-10-17T15:26:16.433Z,101501.98
2022-10-17T15:28:49.582Z,101500.26
2022-10-17T15:31:23.168Z,101503.59
2022-10-17T15:33:55.086Z,101503.11
2022-10-17T15:36:30.308Z,101503.35
2022-10-17T15:39:02.940Z,101509.11
2022-10-17T15:41:35.020Z,101511.64
2022-10-17T15:44:07.127Z,101510.86
2022-10-17T15:46:42.799Z,101509.74
2022-10-17T15:49:17.356Z,101510.59
2022-10-17T15:51:54.374Z,101516.50
2022-10-17T15:54:27.135Z,101512.54
2022-10-17T15:56:58.831Z,101514.27
2022-10-17T15:59:34.752Z,101510.15
2022-10-17T16:02:12.633Z,101511.38
2022-10-17T16:04:44.935Z,101509.65
2022-10-17T16:07:16.974Z,101514.81
2022-10-17T16:09:48.852Z,101518.35
2022-10-17T16:12:28.129Z,101521.33
2022-10-17T16:14:59.855Z,101518.22
2022-10-17T16:17:31.822Z,101516.30
2022-10-17T16:20:03.529Z,101514.48
2022-10-17T16:22:37.025Z,101515.88
2022-10-17T16:25:19.607Z,101518.21
2022-10-17T16:27:52.709Z,101516.77
2022-10-17T16:30:32.830Z,101515.64
2022-10-17T16:33:06.230Z,101515.36
2022-10-17T16:35:37.942Z,101517.38
2022-10-17T16:38:10.113Z,101515.52
2022-10-17T16:40:49.947Z,101515.19
2022-10-17T16:43:21.535Z,101515.86
2022-10-17T16:45:53.197Z,101515.29
2022-10-17T16:48:29.517Z,101518.27
2022-10-17T16:51:10.403Z,101515.50
2022-10-17T16:53:43.942Z,101517.89
2022-10-17T16:56:18.073Z,101518.41
2022-10-17T16:58:50.470Z,101519.86
2022-10-17T17:01:24.524Z,101527.81
2022-10-17T17:03:56.276Z,101529.16
2022-10-17T17:06:29.770Z,101535.63
2022-10-17T17:09:01.320Z,101532.36
2022-10-17T17:11:38.060Z,101531.90
2022-10-17T17:14:10.431Z,101526.98
2022-10-17T17:16:43.434Z,101519.86
2022-10-17T17:19:17.573Z,101524.21
2022-10-17T17:21:51.012Z,101519.14
2022-10-17T17:24:24.003Z,101518.41
2022-10-17T17:26:57.047Z,101518.63
2022-10-17T17:29:28.638Z,101514.42
2022-10-17T17:32:00.192Z,101519.98
2022-10-17T17:34:32.501Z,101520.13
2022-10-17T17:37:04.258Z,101520.39
2022-10-17T17:39:36.006Z,101517.81
2022-10-17T17:42:07.588Z,101522.52
2022-10-17T17:44:39.155Z,101518.23
2022-10-17T17:47:10.809Z,101514.05
2022-10-17T17:49:42.383Z,101508.35
2022-10-17T17:52:14.004Z,101506.73
2022-10-17T17:54:46.808Z,101503.78
2022-10-17T17:57:18.427Z,101499.41
2022-10-17T17:59:50.220Z,101500.82
2022-10-17T18:02:21.768Z,101499.75
2022-10-17T18:04:54.374Z,101501.35
2022-10-17T18:07:26.375Z,101503.27
2022-10-17T18:09:58.158Z,101500.65
2022-10-17T18:12:31.297Z,101502.61
2022-10-17T18:15:03.965Z,101508.27
2022-10-17T18:17:35.833Z,101511.52
2022-10-17T18:20:11.773Z,101510.74
2022-10-17T18:22:43.372Z,101518.83
2022-10-17T18:25:15.328Z,101520.64
2022-10-17T18:27:48.520Z,101523.52
2022-10-17T18:30:25.486Z,101524.76
2022-10-17T18:32:58.949Z,101520.81
2022-10-17T18:35:30.549Z,101525.38
2022-10-17T18:38:02.164Z,101520.90
2022-10-17T18:40:33.759Z,101518.85
2022-10-17T18:43:06.311Z,101523.70
2022-10-17T18:45:38.701Z,101526.53
2022-10-17T18:48:10.789Z,101529.40
2022-10-17T18:50:42.595Z,101533.78
2022-10-17T18:53:14.150Z,101536.17
2022-10-17T18:58:23.488Z,101529.74
2022-10-17T19:00:55.079Z,101525.86
2022-10-17T19:03:26.608Z,101525.36
2022-10-17T19:06:01.204Z,101530.11
2022-10-17T19:08:32.934Z,101531.27
2022-10-17T19:11:09.911Z,101532.77
2022-10-17T19:13:42.609Z,101531.79
2022-10-17T19:16:16.593Z,101534.19
2022-10-17T19:18:52.294Z,101533.63
2022-10-17T19:21:24.227Z,101535.16
2022-10-17T19:23:57.444Z,101532.77
2022-10-17T19:26:32.346Z,101530.69
2022-10-17T19:29:04.571Z,101532.02
2022-10-17T19:31:37.194Z,101528.58
2022-10-17T19:34:08.735Z,101529.90
2022-10-17T19:36:40.927Z,101535.55
2022-10-17T19:39:15.104Z,101536.66
2022-10-17T19:41:48.707Z,101536.39
2022-10-17T19:44:20.493Z,101533.70
2022-10-17T19:46:52.105Z,101537.20
2022-10-17T19:49:23.629Z,101530.72
2022-10-17T19:51:55.200Z,101526.23
2022-10-17T19:54:26.741Z,101528.20
2022-10-17T19:56:58.475Z,101529.73
2022-10-17T19:59:30.077Z,101531.05
2022-10-17T20:02:01.832Z,101532.74
2022-10-17T20:04:33.500Z,101545.95
2022-10-17T20:07:05.063Z,101549.51
2022-10-17T20:09:36.790Z,101549.38
2022-10-17T20:12:08.978Z,101552.47
2022-10-17T20:14:41.201Z,101550.46
2022-10-17T20:17:12.858Z,101549.11
2022-10-17T20:19:44.726Z,101551.38
2022-10-17T20:22:16.445Z,101550.85
2022-10-17T20:24:48.210Z,101543.34
2022-10-17T20:27:22.165Z,101546.17
2022-10-17T20:29:55.946Z,101548.14
2022-10-17T20:32:27.705Z,101552.48
2022-10-17T20:34:59.622Z,101549.73
2022-10-17T20:37:36.392Z,101554.06
2022-10-17T20:40:34.700Z,101556.58
2022-10-17T20:43:09.395Z,101555.98
2022-10-17T20:45:50.782Z,101557.09
2022-10-17T20:48:23.577Z,101551.81
2022-10-17T20:50:55.995Z,101553.88
2022-10-17T20:53:42.804Z,101554.59
2022-10-17T20:56:22.142Z,101556.75
2022-10-17T20:58:55.723Z,101563.81
2022-10-17T21:01:29.768Z,101568.88
2022-10-17T21:04:21.296Z,101567.44
2022-10-17T21:06:53.670Z,101566.11
2022-10-17T21:09:25.277Z,101566.56
2022-10-17T21:11:57.944Z,101569.27
2022-10-17T21:14:29.558Z,101570.14
2022-10-17T21:17:04.932Z,101576.90
2022-10-17T21:19:36.981Z,101574.48
2022-10-17T21:22:09.357Z,101570.56
2022-10-17T21:24:41.179Z,101574.02
2022-10-17T21:27:17.671Z,101575.98
2022-10-17T21:29:50.096Z,101575.81
2022-10-17T21:32:47.298Z,101575.08
2022-10-17T21:35:14.051Z,101574.00
2022-10-17T21:37:45.878Z,101575.73
2022-10-17T21:40:17.414Z,101573.43
2022-10-17T21:42:49.879Z,101574.64
2022-10-17T21:45:25.856Z,101575.88
2022-10-17T21:48:13.598Z,101572.95
2022-10-17T21:50:45.375Z,101570.50
2022-10-17T21:53:17.755Z,101569.44
2022-10-17T21:55:49.336Z,101570.95
2022-10-17T21:58:21.224Z,101575.83
2022-10-17T22:00:52.783Z,101576.10
2022-10-17T22:03:26.898Z,101575.29
2022-10-17T22:06:07.057Z,101572.34
2022-10-17T22:08:51.113Z,101572.80
2022-10-17T22:11:24.862Z,101574.46
2022-10-17T22:13:59.637Z,101574.39
2022-10-17T22:16:31.357Z,101577.05
2022-10-17T22:19:06.421Z,101577.92
2022-10-17T22:21:38.970Z,101578.84
2022-10-17T22:24:14.139Z,101579.82
2022-10-17T22:26:47.451Z,101580.69
2022-10-17T22:29:19.858Z,101568.88
2022-10-17T22:31:51.403Z,101565.58
2022-10-17T22:34:24.535Z,101569.02
2022-10-17T22:36:56.108Z,101573.13
2022-10-17T22:39:27.729Z,101571.34
2022-10-17T22:41:59.287Z,101569.39
2022-10-17T22:44:31.706Z,101567.74
2022-10-17T22:47:03.243Z,101564.06
2022-10-17T22:49:35.731Z,101564.36
2022-10-17T22:52:07.597Z,101565.19
2022-10-17T22:54:40.007Z,101573.92
2022-10-17T22:57:11.547Z,101572.89
2022-10-17T22:59:43.162Z,101570.00
2022-10-17T23:02:14.857Z,101565.52
2022-10-17T23:04:48.367Z,101567.46
2022-10-17T23:07:19.889Z,101565.92
2022-10-17T23:09:51.601Z,101566.18
2022-10-17T23:12:23.453Z,101565.18
2022-10-17T23:14:56.669Z,101568.33
2022-10-17T23:17:28.185Z,101565.23
2022-10-17T23:19:59.823Z,101565.78
2022-10-17T23:22:31.505Z,101565.41
2022-10-17T23:25:05.081Z,101563.96
2022-10-17T23:27:38.114Z,101560.11
2022-10-17T23:30:21.561Z,101562.27
2022-10-17T23:32:54.281Z,101563.56
2022-10-17T23:35:25.926Z,101563.77
2022-10-17T23:37:57.555Z,101565.88
2022-10-17T23:42:21.285Z,101563.48
2022-10-17T23:44:53.302Z,101562.70
2022-10-17T23:47:24.970Z,101565.72
2022-10-17T23:49:56.512Z,101566.09
2022-10-17T23:52:30.884Z,101566.85
2022-10-17T23:55:02.492Z,101564.76
2022-10-17T23:57:34.491Z,101562.30
